56TX weather

Anchorage Farm Field
Warrenton, Texas, United States

Public forecast

Using degrees Fahrenheit for public forecast. Weather courtesy of forecast.io.

METAR (pilot weather report)

Closest report is Fayette Regional Air Center Airport, 11.6 nm (21.5 km) WSW. Retrieved 2019/07/18 04:35 UTC (0 seconds ago):

K3T5 180435Z AUTO 16005KT 10SM CLR 27/25 A2999 RMK AO2 T02700251

TAF (pilot weather forecast)

Forecast is more than 12 hours old.

Closest forecast is Easterwood Field, 40.4 nm (74.8 km) NNE. Retrieved 2019/07/17 00:24 UTC (1 day ago):

TAF KCLL 172322Z 1800/1824 16011KT P6SM FEW060 SCT250 FM180900 16005KT P6SM BKN012 FM181500 18010KT P6SM SCT025 FM181700 18012G22KT P6SM SCT040